Wanilla, Mississippi
Current Conditions -  °F | °C
As of 12:15 AM on Thursday 29 Jan 2015 (Local Time) from K1R7 Reporting Station
Clear Clear  
Wind Chill: 48°   Ceiling: Unl
Heat Index: 48°   Visibility: NA
Dew Point: 43°   Wind: 0mph
Humidity: 82%   Direction: NA
Pressure: 30.23"   Gusts: NA
Location:  31.4742°N, 90.119°W
Report Text: K1R7 290615Z AUTO 00000KT CLR 09/06 A3023 RMK AO2
Loading
Personal Weather Stations






























Interactive Weather Map New forecast layout! Learn more

10-Day Weather Forecast

Advertisements
Track Severe Weather on mobile